X  Sluiten METAR luchtvaart weer gegevens      EBBR Brussels
Temperatuur
9°C Temperatuur
8°C Dauwpunt
94% Vochtigheid



Wind
8 KM/U
5 MPH
2 M/S
4 KTS



30°
NNO
Huidig weer

Helder Helder
Luchtdruk 1032.92 (hPa) - 30.5 (inHg)
Zicht 6.2 (mijl) - 10 (km)
Vliegveld
Vliegveld code EBBR

Locatie : Brussels
Afstand: 14 (km)

Metar:
EBBR 280120Z 03004KT CAVOK 09/08 Q1033 NOSIG

Tijd: 05-28-2020 03:20 CEST